sensor_id;sensor_type;location;lat;lon;timestamp;P1;durP1;ratioP1;P2;durP2;ratioP2
58974;SDS011;44751;52.236;5.178;2023-04-03T00:01:30;3.05;;;1.40;;
58974;SDS011;44751;52.236;5.178;2023-04-03T00:04:01;3.53;;;1.42;;
58974;SDS011;44751;52.236;5.178;2023-04-03T00:06:31;3.67;;;1.45;;
58974;SDS011;44751;52.236;5.178;2023-04-03T00:08:58;2.78;;;1.40;;
58974;SDS011;44751;52.236;5.178;2023-04-03T00:11:25;2.35;;;1.30;;
58974;SDS011;44751;52.236;5.178;2023-04-03T00:13:53;2.15;;;1.33;;
58974;SDS011;44751;52.236;5.178;2023-04-03T00:16:19;4.60;;;1.70;;
58974;SDS011;44751;52.236;5.178;2023-04-03T00:18:46;2.42;;;1.50;;
58974;SDS011;44751;52.236;5.178;2023-04-03T00:21:13;2.08;;;1.30;;
58974;SDS011;44751;52.236;5.178;2023-04-03T00:23:40;3.47;;;1.38;;
58974;SDS011;44751;52.236;5.178;2023-04-03T00:26:07;3.47;;;1.38;;
58974;SDS011;44751;52.236;5.178;2023-04-03T00:28:36;3.03;;;1.45;;
58974;SDS011;44751;52.236;5.178;2023-04-03T00:31:03;3.58;;;1.58;;
58974;SDS011;44751;52.236;5.178;2023-04-03T00:33:30;3.05;;;1.50;;
58974;SDS011;44751;52.236;5.178;2023-04-03T00:35:56;2.20;;;1.35;;
58974;SDS011;44751;52.236;5.178;2023-04-03T00:38:23;3.38;;;1.55;;
58974;SDS011;44751;52.236;5.178;2023-04-03T00:40:49;2.17;;;1.40;;
58974;SDS011;44751;52.236;5.178;2023-04-03T00:43:23;2.25;;;1.40;;
58974;SDS011;44751;52.236;5.178;2023-04-03T00:45:52;4.18;;;1.58;;
58974;SDS011;44751;52.236;5.178;2023-04-03T00:48:21;2.50;;;1.50;;
58974;SDS011;44751;52.236;5.178;2023-04-03T00:50:59;3.08;;;1.27;;
58974;SDS011;44751;52.236;5.178;2023-04-03T00:53:31;3.17;;;1.88;;
58974;SDS011;44751;52.236;5.178;2023-04-03T00:56:01;4.72;;;1.30;;
58974;SDS011;44751;52.236;5.178;2023-04-03T00:58:34;3.30;;;1.38;;
58974;SDS011;44751;52.236;5.178;2023-04-03T01:01:10;2.08;;;1.50;;
58974;SDS011;44751;52.236;5.178;2023-04-03T01:03:42;3.67;;;1.40;;
58974;SDS011;44751;52.236;5.178;2023-04-03T01:06:08;1.88;;;1.30;;
58974;SDS011;44751;52.236;5.178;2023-04-03T01:08:35;3.08;;;1.75;;
58974;SDS011;44751;52.236;5.178;2023-04-03T01:11:02;3.08;;;1.63;;
58974;SDS011;44751;52.236;5.178;2023-04-03T01:13:29;2.85;;;1.40;;
58974;SDS011;44751;52.236;5.178;2023-04-03T01:16:01;3.45;;;1.40;;
58974;SDS011;44751;52.236;5.178;2023-04-03T01:18:32;2.80;;;1.55;;
58974;SDS011;44751;52.236;5.178;2023-04-03T01:23:43;1.77;;;1.45;;
58974;SDS011;44751;52.236;5.178;2023-04-03T01:26:19;5.07;;;1.50;;
58974;SDS011;44751;52.236;5.178;2023-04-03T01:28:46;3.10;;;1.88;;
58974;SDS011;44751;52.236;5.178;2023-04-03T01:31:15;2.83;;;1.40;;
58974;SDS011;44751;52.236;5.178;2023-04-03T01:33:48;2.40;;;1.60;;
58974;SDS011;44751;52.236;5.178;2023-04-03T01:36:18;4.72;;;1.38;;
58974;SDS011;44751;52.236;5.178;2023-04-03T01:39:05;3.20;;;1.63;;
58974;SDS011;44751;52.236;5.178;2023-04-03T01:41:34;5.22;;;1.58;;
58974;SDS011;44751;52.236;5.178;2023-04-03T01:44:01;2.83;;;1.50;;
58974;SDS011;44751;52.236;5.178;2023-04-03T01:46:31;4.13;;;1.65;;
58974;SDS011;44751;52.236;5.178;2023-04-03T01:48:58;4.20;;;1.55;;
58974;SDS011;44751;52.236;5.178;2023-04-03T01:51:24;3.03;;;1.70;;
58974;SDS011;44751;52.236;5.178;2023-04-03T01:53:51;3.15;;;1.48;;
58974;SDS011;44751;52.236;5.178;2023-04-03T01:56:19;5.57;;;1.63;;
58974;SDS011;44751;52.236;5.178;2023-04-03T01:58:49;4.18;;;1.60;;
58974;SDS011;44751;52.236;5.178;2023-04-03T02:01:16;2.95;;;1.50;;
58974;SDS011;44751;52.236;5.178;2023-04-03T02:03:42;3.70;;;1.58;;
58974;SDS011;44751;52.236;5.178;2023-04-03T02:06:09;2.50;;;1.60;;
58974;SDS011;44751;52.236;5.178;2023-04-03T02:08:36;5.53;;;1.63;;
58974;SDS011;44751;52.236;5.178;2023-04-03T02:11:07;3.28;;;1.67;;
58974;SDS011;44751;52.236;5.178;2023-04-03T02:13:34;2.30;;;1.45;;
58974;SDS011;44751;52.236;5.178;2023-04-03T02:16:05;6.35;;;1.90;;
58974;SDS011;44751;52.236;5.178;2023-04-03T02:18:34;6.13;;;1.60;;
58974;SDS011;44751;52.236;5.178;2023-04-03T02:21:11;3.50;;;1.52;;
58974;SDS011;44751;52.236;5.178;2023-04-03T02:23:38;6.40;;;1.80;;
58974;SDS011;44751;52.236;5.178;2023-04-03T02:26:09;4.47;;;1.80;;
58974;SDS011;44751;52.236;5.178;2023-04-03T02:28:42;1.95;;;1.45;;
58974;SDS011;44751;52.236;5.178;2023-04-03T02:31:09;5.10;;;1.63;;
58974;SDS011;44751;52.236;5.178;2023-04-03T02:33:36;3.75;;;1.70;;
58974;SDS011;44751;52.236;5.178;2023-04-03T02:36:04;4.32;;;1.63;;
58974;SDS011;44751;52.236;5.178;2023-04-03T02:38:34;2.70;;;1.63;;
58974;SDS011;44751;52.236;5.178;2023-04-03T02:41:07;4.28;;;1.70;;
58974;SDS011;44751;52.236;5.178;2023-04-03T02:43:35;3.88;;;1.75;;
58974;SDS011;44751;52.236;5.178;2023-04-03T02:46:02;2.88;;;1.65;;
58974;SDS011;44751;52.236;5.178;2023-04-03T02:48:30;4.68;;;2.10;;
58974;SDS011;44751;52.236;5.178;2023-04-03T02:50:56;6.18;;;1.98;;
58974;SDS011;44751;52.236;5.178;2023-04-03T02:53:23;4.30;;;1.67;;
58974;SDS011;44751;52.236;5.178;2023-04-03T02:55:53;4.35;;;1.67;;
58974;SDS011;44751;52.236;5.178;2023-04-03T02:58:20;5.82;;;1.70;;
58974;SDS011;44751;52.236;5.178;2023-04-03T03:00:48;4.80;;;2.08;;
58974;SDS011;44751;52.236;5.178;2023-04-03T03:03:15;3.88;;;1.83;;
58974;SDS011;44751;52.236;5.178;2023-04-03T03:05:42;6.10;;;1.95;;
58974;SDS011;44751;52.236;5.178;2023-04-03T03:08:11;4.38;;;1.85;;
58974;SDS011;44751;52.236;5.178;2023-04-03T03:10:38;4.10;;;1.83;;
58974;SDS011;44751;52.236;5.178;2023-04-03T03:13:04;4.68;;;1.80;;
58974;SDS011;44751;52.236;5.178;2023-04-03T03:15:35;3.88;;;1.90;;
58974;SDS011;44751;52.236;5.178;2023-04-03T03:18:02;4.53;;;1.90;;
58974;SDS011;44751;52.236;5.178;2023-04-03T03:20:28;7.22;;;1.98;;
58974;SDS011;44751;52.236;5.178;2023-04-03T03:22:55;5.43;;;1.70;;
58974;SDS011;44751;52.236;5.178;2023-04-03T03:25:22;2.92;;;1.88;;
58974;SDS011;44751;52.236;5.178;2023-04-03T03:27:53;6.88;;;2.25;;
58974;SDS011;44751;52.236;5.178;2023-04-03T03:30:20;4.93;;;1.80;;
58974;SDS011;44751;52.236;5.178;2023-04-03T03:32:46;6.40;;;2.20;;
58974;SDS011;44751;52.236;5.178;2023-04-03T03:35:12;8.23;;;2.10;;
58974;SDS011;44751;52.236;5.178;2023-04-03T03:37:39;4.07;;;1.80;;
58974;SDS011;44751;52.236;5.178;2023-04-03T03:40:06;3.08;;;1.70;;
58974;SDS011;44751;52.236;5.178;2023-04-03T03:42:37;3.33;;;1.80;;
58974;SDS011;44751;52.236;5.178;2023-04-03T03:45:06;4.88;;;1.80;;
58974;SDS011;44751;52.236;5.178;2023-04-03T03:47:36;3.47;;;1.85;;
58974;SDS011;44751;52.236;5.178;2023-04-03T03:50:07;5.55;;;1.65;;
58974;SDS011;44751;52.236;5.178;2023-04-03T03:52:36;3.45;;;2.30;;
58974;SDS011;44751;52.236;5.178;2023-04-03T03:55:03;7.95;;;2.20;;
58974;SDS011;44751;52.236;5.178;2023-04-03T03:57:30;3.10;;;1.92;;
58974;SDS011;44751;52.236;5.178;2023-04-03T03:59:57;3.63;;;1.92;;
58974;SDS011;44751;52.236;5.178;2023-04-03T04:02:23;5.80;;;1.92;;
58974;SDS011;44751;52.236;5.178;2023-04-03T04:04:54;4.00;;;1.98;;
58974;SDS011;44751;52.236;5.178;2023-04-03T04:07:21;4.45;;;2.08;;
58974;SDS011;44751;52.236;5.178;2023-04-03T04:09:48;6.53;;;2.00;;
58974;SDS011;44751;52.236;5.178;2023-04-03T04:12:14;6.32;;;2.10;;
58974;SDS011;44751;52.236;5.178;2023-04-03T04:14:41;5.63;;;1.83;;
58974;SDS011;44751;52.236;5.178;2023-04-03T04:17:12;8.25;;;2.13;;
58974;SDS011;44751;52.236;5.178;2023-04-03T04:19:39;9.57;;;2.83;;
58974;SDS011;44751;52.236;5.178;2023-04-03T04:22:06;6.30;;;2.05;;
58974;SDS011;44751;52.236;5.178;2023-04-03T04:24:33;5.38;;;1.95;;
58974;SDS011;44751;52.236;5.178;2023-04-03T04:27:09;7.53;;;2.00;;
58974;SDS011;44751;52.236;5.178;2023-04-03T04:29:40;3.72;;;1.65;;
58974;SDS011;44751;52.236;5.178;2023-04-03T04:32:07;4.57;;;2.13;;
58974;SDS011;44751;52.236;5.178;2023-04-03T04:34:34;4.43;;;2.00;;
58974;SDS011;44751;52.236;5.178;2023-04-03T04:37:03;3.53;;;1.90;;
58974;SDS011;44751;52.236;5.178;2023-04-03T04:39:30;5.05;;;2.20;;
58974;SDS011;44751;52.236;5.178;2023-04-03T04:41:56;6.93;;;2.35;;
58974;SDS011;44751;52.236;5.178;2023-04-03T04:44:23;4.78;;;1.98;;
58974;SDS011;44751;52.236;5.178;2023-04-03T04:46:49;7.43;;;2.35;;
58974;SDS011;44751;52.236;5.178;2023-04-03T04:49:18;6.95;;;2.58;;
58974;SDS011;44751;52.236;5.178;2023-04-03T04:51:49;5.45;;;2.20;;
58974;SDS011;44751;52.236;5.178;2023-04-03T04:54:16;7.95;;;2.00;;
58974;SDS011;44751;52.236;5.178;2023-04-03T04:56:42;5.20;;;2.17;;
58974;SDS011;44751;52.236;5.178;2023-04-03T04:59:11;3.40;;;2.00;;
58974;SDS011;44751;52.236;5.178;2023-04-03T05:01:42;6.50;;;2.42;;
58974;SDS011;44751;52.236;5.178;2023-04-03T05:04:09;6.72;;;2.28;;
58974;SDS011;44751;52.236;5.178;2023-04-03T05:06:39;6.10;;;2.33;;
58974;SDS011;44751;52.236;5.178;2023-04-03T05:09:06;3.85;;;2.25;;
58974;SDS011;44751;52.236;5.178;2023-04-03T05:11:35;6.63;;;2.40;;
58974;SDS011;44751;52.236;5.178;2023-04-03T05:14:01;5.35;;;2.30;;
58974;SDS011;44751;52.236;5.178;2023-04-03T05:16:30;5.97;;;2.10;;
58974;SDS011;44751;52.236;5.178;2023-04-03T05:18:56;4.65;;;2.10;;
58974;SDS011;44751;52.236;5.178;2023-04-03T05:21:23;4.25;;;1.90;;
58974;SDS011;44751;52.236;5.178;2023-04-03T05:26:28;5.50;;;2.25;;
58974;SDS011;44751;52.236;5.178;2023-04-03T05:28:56;5.13;;;2.00;;
58974;SDS011;44751;52.236;5.178;2023-04-03T05:31:25;6.85;;;2.20;;
58974;SDS011;44751;52.236;5.178;2023-04-03T05:34:01;6.72;;;2.28;;
58974;SDS011;44751;52.236;5.178;2023-04-03T05:36:28;5.75;;;2.22;;
58974;SDS011;44751;52.236;5.178;2023-04-03T05:38:55;6.43;;;2.20;;
58974;SDS011;44751;52.236;5.178;2023-04-03T05:41:22;4.60;;;2.30;;
58974;SDS011;44751;52.236;5.178;2023-04-03T05:43:52;6.70;;;2.15;;
58974;SDS011;44751;52.236;5.178;2023-04-03T05:46:18;4.70;;;2.42;;
58974;SDS011;44751;52.236;5.178;2023-04-03T05:48:46;10.60;;;3.60;;
58974;SDS011;44751;52.236;5.178;2023-04-03T05:51:15;3.97;;;2.17;;
58974;SDS011;44751;52.236;5.178;2023-04-03T05:54:41;6.25;;;2.33;;
58974;SDS011;44751;52.236;5.178;2023-04-03T05:56:50;8.55;;;2.55;;
58974;SDS011;44751;52.236;5.178;2023-04-03T05:59:18;6.07;;;2.08;;
58974;SDS011;44751;52.236;5.178;2023-04-03T06:01:45;4.47;;;2.10;;
58974;SDS011;44751;52.236;5.178;2023-04-03T06:04:12;7.20;;;2.53;;
58974;SDS011;44751;52.236;5.178;2023-04-03T06:09:25;6.32;;;2.78;;
58974;SDS011;44751;52.236;5.178;2023-04-03T06:11:53;9.48;;;2.63;;
58974;SDS011;44751;52.236;5.178;2023-04-03T06:14:25;6.20;;;2.30;;
58974;SDS011;44751;52.236;5.178;2023-04-03T06:16:52;5.40;;;2.20;;
58974;SDS011;44751;52.236;5.178;2023-04-03T06:19:19;6.80;;;2.42;;
58974;SDS011;44751;52.236;5.178;2023-04-03T06:21:46;5.15;;;2.15;;
58974;SDS011;44751;52.236;5.178;2023-04-03T06:24:14;6.35;;;2.60;;
58974;SDS011;44751;52.236;5.178;2023-04-03T06:26:45;5.43;;;2.35;;
58974;SDS011;44751;52.236;5.178;2023-04-03T06:29:11;5.22;;;2.30;;
58974;SDS011;44751;52.236;5.178;2023-04-03T06:31:38;7.35;;;2.40;;
58974;SDS011;44751;52.236;5.178;2023-04-03T06:34:05;9.23;;;2.70;;
58974;SDS011;44751;52.236;5.178;2023-04-03T06:36:40;5.55;;;1.80;;
58974;SDS011;44751;52.236;5.178;2023-04-03T06:39:08;6.05;;;2.22;;
58974;SDS011;44751;52.236;5.178;2023-04-03T06:41:39;3.83;;;2.00;;
58974;SDS011;44751;52.236;5.178;2023-04-03T06:44:05;7.78;;;2.22;;
58974;SDS011;44751;52.236;5.178;2023-04-03T06:46:42;4.72;;;1.85;;
58974;SDS011;44751;52.236;5.178;2023-04-03T06:49:10;7.35;;;2.30;;
58974;SDS011;44751;52.236;5.178;2023-04-03T06:51:36;4.97;;;2.17;;
58974;SDS011;44751;52.236;5.178;2023-04-03T06:54:07;6.70;;;2.30;;
58974;SDS011;44751;52.236;5.178;2023-04-03T06:56:34;7.85;;;2.13;;
58974;SDS011;44751;52.236;5.178;2023-04-03T06:59:04;7.63;;;2.60;;
58974;SDS011;44751;52.236;5.178;2023-04-03T07:01:33;7.47;;;2.60;;
58974;SDS011;44751;52.236;5.178;2023-04-03T07:04:03;5.15;;;2.65;;
58974;SDS011;44751;52.236;5.178;2023-04-03T07:06:35;4.28;;;1.90;;
58974;SDS011;44751;52.236;5.178;2023-04-03T07:09:04;7.65;;;2.60;;
58974;SDS011;44751;52.236;5.178;2023-04-03T07:11:32;6.47;;;2.35;;
58974;SDS011;44751;52.236;5.178;2023-04-03T07:14:02;7.32;;;2.40;;
58974;SDS011;44751;52.236;5.178;2023-04-03T07:16:31;7.60;;;2.17;;
58974;SDS011;44751;52.236;5.178;2023-04-03T07:18:58;5.38;;;2.17;;
58974;SDS011;44751;52.236;5.178;2023-04-03T07:21:24;3.08;;;1.95;;
58974;SDS011;44751;52.236;5.178;2023-04-03T07:24:08;5.38;;;2.28;;
58974;SDS011;44751;52.236;5.178;2023-04-03T07:26:35;5.20;;;2.45;;
58974;SDS011;44751;52.236;5.178;2023-04-03T07:29:02;6.13;;;2.53;;
58974;SDS011;44751;52.236;5.178;2023-04-03T07:31:31;4.65;;;2.05;;
58974;SDS011;44751;52.236;5.178;2023-04-03T07:34:10;5.97;;;2.38;;
58974;SDS011;44751;52.236;5.178;2023-04-03T07:36:37;5.38;;;2.17;;
58974;SDS011;44751;52.236;5.178;2023-04-03T07:39:04;3.70;;;1.83;;
58974;SDS011;44751;52.236;5.178;2023-04-03T07:41:31;5.75;;;1.90;;
58974;SDS011;44751;52.236;5.178;2023-04-03T07:44:04;6.47;;;2.10;;
58974;SDS011;44751;52.236;5.178;2023-04-03T07:46:31;5.43;;;1.88;;
58974;SDS011;44751;52.236;5.178;2023-04-03T07:48:58;6.43;;;2.05;;
58974;SDS011;44751;52.236;5.178;2023-04-03T07:51:24;4.07;;;1.85;;
58974;SDS011;44751;52.236;5.178;2023-04-03T07:53:54;3.83;;;2.20;;
58974;SDS011;44751;52.236;5.178;2023-04-03T07:56:24;3.55;;;2.00;;
58974;SDS011;44751;52.236;5.178;2023-04-03T07:58:51;5.43;;;2.10;;
58974;SDS011;44751;52.236;5.178;2023-04-03T08:01:18;5.05;;;2.10;;
58974;SDS011;44751;52.236;5.178;2023-04-03T08:03:45;4.68;;;1.75;;
58974;SDS011;44751;52.236;5.178;2023-04-03T08:06:12;6.47;;;2.22;;
58974;SDS011;44751;52.236;5.178;2023-04-03T08:08:40;5.28;;;2.08;;
58974;SDS011;44751;52.236;5.178;2023-04-03T08:11:07;7.03;;;1.90;;
58974;SDS011;44751;52.236;5.178;2023-04-03T08:13:33;4.97;;;2.28;;
58974;SDS011;44751;52.236;5.178;2023-04-03T08:16:08;5.85;;;2.30;;
58974;SDS011;44751;52.236;5.178;2023-04-03T08:18:40;4.72;;;2.10;;
58974;SDS011;44751;52.236;5.178;2023-04-03T08:21:07;4.28;;;1.92;;
58974;SDS011;44751;52.236;5.178;2023-04-03T08:23:35;3.15;;;1.77;;
58974;SDS011;44751;52.236;5.178;2023-04-03T08:26:09;6.28;;;2.40;;
58974;SDS011;44751;52.236;5.178;2023-04-03T08:28:37;4.10;;;1.88;;
58974;SDS011;44751;52.236;5.178;2023-04-03T08:31:06;3.28;;;1.88;;
58974;SDS011;44751;52.236;5.178;2023-04-03T08:33:35;3.60;;;1.67;;
58974;SDS011;44751;52.236;5.178;2023-04-03T08:36:15;2.58;;;1.63;;
58974;SDS011;44751;52.236;5.178;2023-04-03T08:39:03;4.40;;;1.35;;
58974;SDS011;44751;52.236;5.178;2023-04-03T08:49:37;3.20;;;1.80;;
58974;SDS011;44751;52.236;5.178;2023-04-03T08:52:13;2.60;;;1.42;;
58974;SDS011;44751;52.236;5.178;2023-04-03T08:54:54;4.47;;;1.70;;
58974;SDS011;44751;52.236;5.178;2023-04-03T08:57:28;4.53;;;1.80;;
58974;SDS011;44751;52.236;5.178;2023-04-03T08:59:58;2.72;;;1.58;;
58974;SDS011;44751;52.236;5.178;2023-04-03T09:02:30;2.60;;;1.33;;
58974;SDS011;44751;52.236;5.178;2023-04-03T09:05:02;3.10;;;1.55;;
58974;SDS011;44751;52.236;5.178;2023-04-03T09:07:39;2.72;;;1.20;;
58974;SDS011;44751;52.236;5.178;2023-04-03T09:10:13;2.83;;;1.10;;
58974;SDS011;44751;52.236;5.178;2023-04-03T09:12:49;3.40;;;1.40;;
58974;SDS011;44751;52.236;5.178;2023-04-03T09:15:24;2.75;;;1.10;;
58974;SDS011;44751;52.236;5.178;2023-04-03T09:20:39;2.63;;;1.30;;
58974;SDS011;44751;52.236;5.178;2023-04-03T09:23:25;3.17;;;1.10;;
58974;SDS011;44751;52.236;5.178;2023-04-03T09:26:03;1.42;;;1.10;;
58974;SDS011;44751;52.236;5.178;2023-04-03T09:28:35;2.65;;;1.20;;
58974;SDS011;44751;52.236;5.178;2023-04-03T09:31:26;2.03;;;1.40;;
58974;SDS011;44751;52.236;5.178;2023-04-03T09:33:59;2.10;;;1.20;;
58974;SDS011;44751;52.236;5.178;2023-04-03T09:36:39;2.90;;;0.95;;
58974;SDS011;44751;52.236;5.178;2023-04-03T09:39:15;3.53;;;1.20;;
58974;SDS011;44751;52.236;5.178;2023-04-03T09:42:14;2.72;;;0.88;;
58974;SDS011;44751;52.236;5.178;2023-04-03T09:44:41;1.60;;;1.10;;
58974;SDS011;44751;52.236;5.178;2023-04-03T09:50:17;1.85;;;1.10;;
58974;SDS011;44751;52.236;5.178;2023-04-03T09:52:49;1.90;;;1.00;;
58974;SDS011;44751;52.236;5.178;2023-04-03T09:55:20;2.70;;;1.20;;
58974;SDS011;44751;52.236;5.178;2023-04-03T09:57:57;1.88;;;1.00;;
58974;SDS011;44751;52.236;5.178;2023-04-03T10:02:57;2.30;;;0.97;;
58974;SDS011;44751;52.236;5.178;2023-04-03T10:10:42;2.58;;;1.00;;
58974;SDS011;44751;52.236;5.178;2023-04-03T10:13:11;2.28;;;0.90;;
58974;SDS011;44751;52.236;5.178;2023-04-03T10:15:51;2.10;;;0.80;;
58974;SDS011;44751;52.236;5.178;2023-04-03T10:18:31;1.83;;;0.90;;
58974;SDS011;44751;52.236;5.178;2023-04-03T10:21:51;2.20;;;0.80;;
58974;SDS011;44751;52.236;5.178;2023-04-03T10:38:13;1.08;;;0.57;;
58974;SDS011;44751;52.236;5.178;2023-04-03T10:41:09;3.47;;;0.80;;
58974;SDS011;44751;52.236;5.178;2023-04-03T10:43:42;1.70;;;0.73;;
58974;SDS011;44751;52.236;5.178;2023-04-03T10:46:27;1.30;;;0.68;;
58974;SDS011;44751;52.236;5.178;2023-04-03T10:49:02;0.88;;;0.60;;
58974;SDS011;44751;52.236;5.178;2023-04-03T10:51:41;1.27;;;0.77;;
58974;SDS011;44751;52.236;5.178;2023-04-03T10:54:25;1.45;;;0.70;;
58974;SDS011;44751;52.236;5.178;2023-04-03T10:57:00;1.40;;;0.75;;
58974;SDS011;44751;52.236;5.178;2023-04-03T10:59:32;1.08;;;0.70;;
58974;SDS011;44751;52.236;5.178;2023-04-03T11:02:28;1.08;;;0.63;;
58974;SDS011;44751;52.236;5.178;2023-04-03T11:05:06;2.22;;;0.70;;
58974;SDS011;44751;52.236;5.178;2023-04-03T11:07:48;2.22;;;0.90;;
58974;SDS011;44751;52.236;5.178;2023-04-03T11:10:41;1.60;;;0.60;;
58974;SDS011;44751;52.236;5.178;2023-04-03T11:13:15;1.20;;;0.70;;
58974;SDS011;44751;52.236;5.178;2023-04-03T11:15:48;1.33;;;0.70;;
58974;SDS011;44751;52.236;5.178;2023-04-03T11:18:18;2.35;;;0.80;;
58974;SDS011;44751;52.236;5.178;2023-04-03T11:21:02;2.33;;;0.80;;
58974;SDS011;44751;52.236;5.178;2023-04-03T11:23:36;2.10;;;0.80;;
58974;SDS011;44751;52.236;5.178;2023-04-03T11:26:12;0.63;;;0.60;;
58974;SDS011;44751;52.236;5.178;2023-04-03T11:28:41;2.10;;;0.60;;
58974;SDS011;44751;52.236;5.178;2023-04-03T11:31:11;2.67;;;0.80;;
58974;SDS011;44751;52.236;5.178;2023-04-03T11:39:22;3.00;;;1.00;;
58974;SDS011;44751;52.236;5.178;2023-04-03T11:41:52;2.00;;;0.80;;
58974;SDS011;44751;52.236;5.178;2023-04-03T11:44:28;1.95;;;0.80;;
58974;SDS011;44751;52.236;5.178;2023-04-03T11:47:04;2.42;;;0.80;;
58974;SDS011;44751;52.236;5.178;2023-04-03T12:13:41;1.38;;;0.70;;
58974;SDS011;44751;52.236;5.178;2023-04-03T12:26:46;1.25;;;0.60;;
58974;SDS011;44751;52.236;5.178;2023-04-03T12:29:20;3.35;;;0.80;;
58974;SDS011;44751;52.236;5.178;2023-04-03T12:32:05;1.20;;;0.73;;
58974;SDS011;44751;52.236;5.178;2023-04-03T12:37:30;1.95;;;0.80;;
58974;SDS011;44751;52.236;5.178;2023-04-03T12:40:16;5.97;;;0.80;;
58974;SDS011;44751;52.236;5.178;2023-04-03T12:43:07;2.47;;;0.77;;
58974;SDS011;44751;52.236;5.178;2023-04-03T12:45:58;1.02;;;0.82;;
58974;SDS011;44751;52.236;5.178;2023-04-03T12:48:29;2.50;;;0.85;;
58974;SDS011;44751;52.236;5.178;2023-04-03T12:51:01;2.50;;;1.00;;
58974;SDS011;44751;52.236;5.178;2023-04-03T12:53:34;2.63;;;1.13;;
58974;SDS011;44751;52.236;5.178;2023-04-03T12:58:55;1.63;;;0.90;;
58974;SDS011;44751;52.236;5.178;2023-04-03T13:01:39;2.70;;;0.90;;
58974;SDS011;44751;52.236;5.178;2023-04-03T13:04:10;1.50;;;1.08;;
58974;SDS011;44751;52.236;5.178;2023-04-03T13:06:39;2.60;;;1.23;;
58974;SDS011;44751;52.236;5.178;2023-04-03T13:11:48;1.80;;;0.98;;
58974;SDS011;44751;52.236;5.178;2023-04-03T13:14:21;1.92;;;0.80;;
58974;SDS011;44751;52.236;5.178;2023-04-03T13:19:44;4.30;;;0.80;;
58974;SDS011;44751;52.236;5.178;2023-04-03T13:22:24;1.48;;;0.70;;
58974;SDS011;44751;52.236;5.178;2023-04-03T13:25:13;2.10;;;0.90;;
58974;SDS011;44751;52.236;5.178;2023-04-03T13:27:43;2.30;;;1.00;;
58974;SDS011;44751;52.236;5.178;2023-04-03T13:30:24;2.30;;;1.00;;
58974;SDS011;44751;52.236;5.178;2023-04-03T13:33:00;1.60;;;1.00;;
58974;SDS011;44751;52.236;5.178;2023-04-03T13:38:00;3.53;;;1.00;;
58974;SDS011;44751;52.236;5.178;2023-04-03T13:40:29;1.38;;;0.80;;
58974;SDS011;44751;52.236;5.178;2023-04-03T13:43:03;1.65;;;0.63;;
58974;SDS011;44751;52.236;5.178;2023-04-03T13:53:56;1.55;;;0.73;;
58974;SDS011;44751;52.236;5.178;2023-04-03T13:56:36;1.67;;;0.82;;
58974;SDS011;44751;52.236;5.178;2023-04-03T14:07:17;3.17;;;1.20;;
58974;SDS011;44751;52.236;5.178;2023-04-03T14:09:45;2.92;;;1.00;;
58974;SDS011;44751;52.236;5.178;2023-04-03T14:12:14;2.65;;;0.85;;
58974;SDS011;44751;52.236;5.178;2023-04-03T14:14:45;1.10;;;0.80;;
58974;SDS011;44751;52.236;5.178;2023-04-03T14:17:21;2.25;;;1.02;;
58974;SDS011;44751;52.236;5.178;2023-04-03T14:19:50;2.08;;;1.00;;
58974;SDS011;44751;52.236;5.178;2023-04-03T14:22:28;2.17;;;0.93;;
58974;SDS011;44751;52.236;5.178;2023-04-03T14:24:58;3.00;;;1.20;;
58974;SDS011;44751;52.236;5.178;2023-04-03T14:29:59;5.90;;;1.25;;
58974;SDS011;44751;52.236;5.178;2023-04-03T14:32:31;3.03;;;0.90;;
58974;SDS011;44751;52.236;5.178;2023-04-03T14:35:05;2.10;;;1.20;;
58974;SDS011;44751;52.236;5.178;2023-04-03T14:37:43;3.63;;;1.15;;
58974;SDS011;44751;52.236;5.178;2023-04-03T14:40:13;2.78;;;1.25;;
58974;SDS011;44751;52.236;5.178;2023-04-03T14:42:49;2.20;;;1.02;;
58974;SDS011;44751;52.236;5.178;2023-04-03T14:45:38;7.70;;;1.50;;
58974;SDS011;44751;52.236;5.178;2023-04-03T14:48:09;3.95;;;1.25;;
58974;SDS011;44751;52.236;5.178;2023-04-03T14:50:44;2.38;;;1.08;;
58974;SDS011;44751;52.236;5.178;2023-04-03T14:53:31;2.65;;;1.30;;
58974;SDS011;44751;52.236;5.178;2023-04-03T14:56:04;3.40;;;1.20;;
58974;SDS011;44751;52.236;5.178;2023-04-03T14:58:49;2.45;;;1.20;;
58974;SDS011;44751;52.236;5.178;2023-04-03T15:01:25;2.17;;;1.13;;
58974;SDS011;44751;52.236;5.178;2023-04-03T15:03:56;1.83;;;1.17;;
58974;SDS011;44751;52.236;5.178;2023-04-03T15:06:25;2.15;;;0.90;;
58974;SDS011;44751;52.236;5.178;2023-04-03T15:08:52;2.33;;;1.23;;
58974;SDS011;44751;52.236;5.178;2023-04-03T15:11:19;1.98;;;1.17;;
58974;SDS011;44751;52.236;5.178;2023-04-03T15:13:48;4.15;;;1.52;;
58974;SDS011;44751;52.236;5.178;2023-04-03T15:16:17;3.47;;;1.40;;
58974;SDS011;44751;52.236;5.178;2023-04-03T15:18:45;1.92;;;0.90;;
58974;SDS011;44751;52.236;5.178;2023-04-03T15:21:13;4.30;;;1.30;;
58974;SDS011;44751;52.236;5.178;2023-04-03T15:23:40;4.78;;;1.27;;
58974;SDS011;44751;52.236;5.178;2023-04-03T15:26:08;3.95;;;1.30;;
58974;SDS011;44751;52.236;5.178;2023-04-03T15:57:16;3.90;;;1.05;;
58974;SDS011;44751;52.236;5.178;2023-04-03T15:59:45;3.97;;;1.30;;
58974;SDS011;44751;52.236;5.178;2023-04-03T16:02:11;3.40;;;1.67;;
58974;SDS011;44751;52.236;5.178;2023-04-03T16:04:42;2.30;;;1.20;;
58974;SDS011;44751;52.236;5.178;2023-04-03T16:07:09;2.78;;;1.17;;
58974;SDS011;44751;52.236;5.178;2023-04-03T16:09:36;3.03;;;1.48;;
58974;SDS011;44751;52.236;5.178;2023-04-03T16:12:05;4.22;;;1.45;;
58974;SDS011;44751;52.236;5.178;2023-04-03T16:14:32;4.97;;;1.33;;
58974;SDS011;44751;52.236;5.178;2023-04-03T16:17:09;3.63;;;1.70;;
58974;SDS011;44751;52.236;5.178;2023-04-03T19:19:48;5.00;;;2.00;;
58974;SDS011;44751;52.236;5.178;2023-04-03T19:22:16;10.15;;;3.65;;
58974;SDS011;44751;52.236;5.178;2023-04-03T19:24:43;4.80;;;2.10;;
58974;SDS011;44751;52.236;5.178;2023-04-03T19:27:12;3.13;;;2.20;;
58974;SDS011;44751;52.236;5.178;2023-04-03T19:29:39;4.15;;;2.15;;
58974;SDS011;44751;52.236;5.178;2023-04-03T19:32:11;4.53;;;2.20;;
58974;SDS011;44751;52.236;5.178;2023-04-03T19:34:38;4.18;;;2.10;;
58974;SDS011;44751;52.236;5.178;2023-04-03T19:37:06;4.05;;;1.77;;
58974;SDS011;44751;52.236;5.178;2023-04-03T19:39:35;4.25;;;2.00;;
58974;SDS011;44751;52.236;5.178;2023-04-03T19:42:03;5.40;;;1.80;;
58974;SDS011;44751;52.236;5.178;2023-04-03T19:44:31;4.22;;;2.00;;
58974;SDS011;44751;52.236;5.178;2023-04-03T19:47:02;4.68;;;1.70;;
58974;SDS011;44751;52.236;5.178;2023-04-03T19:49:43;6.22;;;2.40;;
58974;SDS011;44751;52.236;5.178;2023-04-03T19:52:09;3.47;;;2.05;;
58974;SDS011;44751;52.236;5.178;2023-04-03T19:54:39;4.50;;;2.10;;
58974;SDS011;44751;52.236;5.178;2023-04-03T19:57:12;3.88;;;1.90;;
58974;SDS011;44751;52.236;5.178;2023-04-03T19:59:39;4.40;;;1.65;;
58974;SDS011;44751;52.236;5.178;2023-04-03T20:02:08;3.58;;;1.88;;
58974;SDS011;44751;52.236;5.178;2023-04-03T20:04:40;3.80;;;1.90;;
58974;SDS011;44751;52.236;5.178;2023-04-03T20:07:07;3.53;;;1.88;;
58974;SDS011;44751;52.236;5.178;2023-04-03T20:09:36;5.75;;;1.90;;
58974;SDS011;44751;52.236;5.178;2023-04-03T20:12:03;3.63;;;1.60;;
58974;SDS011;44751;52.236;5.178;2023-04-03T20:14:37;3.95;;;1.70;;
58974;SDS011;44751;52.236;5.178;2023-04-03T20:17:05;3.63;;;1.55;;
58974;SDS011;44751;52.236;5.178;2023-04-03T20:19:44;6.80;;;2.10;;
58974;SDS011;44751;52.236;5.178;2023-04-03T20:22:15;4.40;;;2.60;;
58974;SDS011;44751;52.236;5.178;2023-04-03T20:24:41;3.65;;;2.00;;
58974;SDS011;44751;52.236;5.178;2023-04-03T20:27:08;4.13;;;2.20;;
58974;SDS011;44751;52.236;5.178;2023-04-03T20:29:41;5.53;;;1.90;;
58974;SDS011;44751;52.236;5.178;2023-04-03T20:32:14;4.90;;;2.35;;
58974;SDS011;44751;52.236;5.178;2023-04-03T20:34:42;7.18;;;2.30;;
58974;SDS011;44751;52.236;5.178;2023-04-03T20:37:12;4.00;;;1.90;;